Time;durP1;ratioP1;P1;durP2;ratioP2;P2;SDS_P1;SDS_P2;PMS_P1;PMS_P2;Temp;Humidity;BMP_temperature;BMP_pressure;BME280_temperature;BME280_humidity;BME280_pressure;Samples;Min_cycle;Max_cycle;Signal;HPM_P1;HPM_P2
2023/08/03 06:02:33;;;;;;;37.92;6.38;;;;;;;;;;4930878;29;20044;-88
2023/08/03 06:04:59;;;;;;;32.67;6.60;;;;;;;;;;4934109;29;20036;-90
2023/08/03 06:07:25;;;;;;;44.55;7.78;;;;;;;;;;4933445;29;20050;-87
2023/08/03 06:09:50;;;;;;;42.85;7.75;;;;;;;;;;4933939;29;20039;-85
2023/08/03 06:12:18;;;;;;;34.92;6.90;;;;;;;;;;4933083;29;20408;-86
2023/08/03 06:14:43;;;;;;;42.88;8.45;;;;;;;;;;4934064;29;20043;-86
2023/08/03 06:17:10;;;;;;;50.72;7.93;;;;;;;;;;4932666;29;20047;-86
2023/08/03 06:19:36;;;;;;;42.40;7.40;;;;;;;;;;4933761;29;20040;-85
2023/08/03 06:22:10;;;;;;;51.70;9.88;;;;;;;;;;4934058;29;20477;-86
2023/08/03 06:24:35;;;;;;;49.00;8.77;;;;;;;;;;4933310;29;20381;-86
2023/08/03 06:27:01;;;;;;;51.22;8.93;;;;;;;;;;4933257;29;20047;-87
2023/08/03 06:29:26;;;;;;;57.97;9.25;;;;;;;;;;4932924;29;20063;-88
2023/08/03 06:31:52;;;;;;;59.70;10.32;;;;;;;;;;4933618;29;20130;-86
2023/08/03 06:34:17;;;;;;;58.00;9.35;;;;;;;;;;4933195;29;20047;-86
2023/08/03 06:36:44;;;;;;;49.65;9.35;;;;;;;;;;4933660;29;20500;-87
2023/08/03 06:39:09;;;;;;;62.78;11.07;;;;;;;;;;4932632;29;20044;-87
2023/08/03 06:41:35;;;;;;;66.80;9.55;;;;;;;;;;4933947;29;20058;-86
2023/08/03 06:44:01;;;;;;;60.78;9.88;;;;;;;;;;4933419;29;20075;-86
2023/08/03 06:46:27;;;;;;;68.03;11.23;;;;;;;;;;4932984;29;20056;-86
2023/08/03 06:48:53;;;;;;;66.38;11.52;;;;;;;;;;4933333;29;20059;-86
2023/08/03 06:51:20;;;;;;;66.80;11.50;;;;;;;;;;4932873;29;20431;-85
2023/08/03 06:53:46;;;;;;;60.85;10.98;;;;;;;;;;4933288;29;20046;-86
2023/08/03 06:56:12;;;;;;;57.75;11.57;;;;;;;;;;4915910;29;20047;-84
2023/08/03 06:58:38;;;;;;;75.57;11.75;;;;;;;;;;4933566;29;20047;-84
2023/08/03 07:01:03;;;;;;;65.53;11.93;;;;;;;;;;4927845;29;20048;-85
2023/08/03 07:03:30;;;;;;;74.80;11.88;;;;;;;;;;4923765;29;20043;-86
2023/08/03 07:05:55;;;;;;;59.55;10.77;;;;;;;;;;4927443;29;20110;-85
2023/08/03 07:08:20;;;;;;;64.95;11.48;;;;;;;;;;4931513;29;20516;-84
2023/08/03 07:10:46;;;;;;;79.07;12.85;;;;;;;;;;4933198;29;20071;-84
2023/08/03 07:13:11;;;;;;;67.38;11.68;;;;;;;;;;4914522;29;20040;-85
2023/08/03 07:15:37;;;;;;;69.70;12.20;;;;;;;;;;4925185;29;20315;-86
2023/08/03 07:18:03;;;;;;;63.88;11.00;;;;;;;;;;4933574;29;20466;-85
2023/08/03 07:20:28;;;;;;;46.47;10.75;;;;;;;;;;4932834;29;20043;-84
2023/08/03 07:22:53;;;;;;;64.10;11.80;;;;;;;;;;4918189;29;20088;-85
2023/08/03 07:25:19;;;;;;;74.13;12.40;;;;;;;;;;4913937;29;20048;-86
2023/08/03 07:27:44;;;;;;;71.80;11.07;;;;;;;;;;4913887;29;20040;-86
2023/08/03 07:30:10;;;;;;;67.13;12.35;;;;;;;;;;4917312;29;20123;-86
2023/08/03 07:32:35;;;;;;;60.60;10.95;;;;;;;;;;4934904;29;20480;-86
2023/08/03 07:35:02;;;;;;;56.70;11.55;;;;;;;;;;4936341;29;20456;-86
2023/08/03 07:37:27;;;;;;;72.47;11.90;;;;;;;;;;4918746;29;20552;-85
2023/08/03 07:39:52;;;;;;;53.50;11.05;;;;;;;;;;4936300;29;20066;-86
2023/08/03 07:42:18;;;;;;;53.85;11.13;;;;;;;;;;4926211;29;20405;-85
2023/08/03 07:44:43;;;;;;;54.60;10.63;;;;;;;;;;4917572;29;20075;-85
2023/08/03 07:47:09;;;;;;;42.10;10.38;;;;;;;;;;4917576;29;20048;-84
2023/08/03 07:49:34;;;;;;;42.83;9.50;;;;;;;;;;4920011;29;20062;-87
2023/08/03 07:51:59;;;;;;;56.08;10.02;;;;;;;;;;4929854;29;20043;-87
2023/08/03 07:54:25;;;;;;;56.33;10.65;;;;;;;;;;4912769;29;20044;-86
2023/08/03 07:56:50;;;;;;;53.55;10.95;;;;;;;;;;4935802;29;20551;-86
2023/08/03 07:59:16;;;;;;;48.97;10.55;;;;;;;;;;4935997;29;20063;-86
2023/08/03 08:01:43;;;;;;;64.95;11.38;;;;;;;;;;4918563;29;20054;-85
2023/08/03 08:04:09;;;;;;;50.75;10.10;;;;;;;;;;4935432;29;20036;-85
2023/08/03 08:06:35;;;;;;;50.28;11.20;;;;;;;;;;4935631;29;20496;-85
2023/08/03 08:09:00;;;;;;;65.53;12.15;;;;;;;;;;4936057;29;20077;-84
2023/08/03 08:11:26;;;;;;;54.97;10.60;;;;;;;;;;4935877;29;20488;-86
2023/08/03 08:13:51;;;;;;;64.68;10.70;;;;;;;;;;4935681;29;20040;-85
2023/08/03 08:16:17;;;;;;;48.75;10.45;;;;;;;;;;4934755;29;20099;-87
2023/08/03 08:18:43;;;;;;;58.58;11.02;;;;;;;;;;4917028;29;20048;-85
2023/08/03 08:21:11;;;;;;;64.43;10.73;;;;;;;;;;4926940;29;20048;-85
2023/08/03 08:23:36;;;;;;;50.83;11.05;;;;;;;;;;4920540;29;20092;-85
2023/08/03 08:26:09;;;;;;;60.00;12.25;;;;;;;;;;4921253;29;20473;-86
2023/08/03 08:28:34;;;;;;;52.80;11.05;;;;;;;;;;4916597;29;20044;-85
2023/08/03 08:31:00;;;;;;;46.25;9.02;;;;;;;;;;4930118;29;20115;-86
2023/08/03 08:33:25;;;;;;;47.10;9.77;;;;;;;;;;4932575;29;20394;-86
2023/08/03 08:35:50;;;;;;;59.47;11.25;;;;;;;;;;4933205;29;20044;-85
2023/08/03 08:38:16;;;;;;;51.70;9.07;;;;;;;;;;4934834;29;20051;-85
2023/08/03 08:40:43;;;;;;;50.05;9.60;;;;;;;;;;4913653;29;20091;-80
2023/08/03 08:43:09;;;;;;;46.90;9.82;;;;;;;;;;4931344;29;20046;-85
2023/08/03 08:45:36;;;;;;;53.92;10.60;;;;;;;;;;4935167;29;20051;-84
2023/08/03 08:48:02;;;;;;;38.30;8.20;;;;;;;;;;4934365;29;20048;-83
2023/08/03 08:50:28;;;;;;;45.10;8.55;;;;;;;;;;4934151;29;20412;-84
2023/08/03 08:52:55;;;;;;;44.50;8.38;;;;;;;;;;4936015;29;20039;-83
2023/08/03 08:55:22;;;;;;;35.47;8.82;;;;;;;;;;4934734;29;20040;-84
2023/08/03 08:57:47;;;;;;;34.63;8.18;;;;;;;;;;4917792;29;20074;-81
2023/08/03 09:00:14;;;;;;;34.45;8.40;;;;;;;;;;4934234;29;20529;-83
2023/08/03 09:02:39;;;;;;;41.03;9.05;;;;;;;;;;4935024;29;20051;-83
2023/08/03 09:05:33;;;;;;;42.13;7.38;;;;;;;;;;4934587;29;20047;-82
2023/08/03 09:08:01;;;;;;;34.83;8.30;;;;;;;;;;4933857;29;20036;-83
2023/08/03 09:10:26;;;;;;;45.20;8.67;;;;;;;;;;4934343;29;20047;-84
2023/08/03 09:12:52;;;;;;;41.67;8.30;;;;;;;;;;4934872;29;20036;-83
2023/08/03 09:15:17;;;;;;;40.70;8.05;;;;;;;;;;4934089;29;20527;-84
2023/08/03 09:17:46;;;;;;;38.80;8.55;;;;;;;;;;4934633;29;20054;-83
2023/08/03 09:20:27;;;;;;;33.65;6.70;;;;;;;;;;4933466;29;20083;-83
2023/08/03 09:22:52;;;;;;;43.72;7.35;;;;;;;;;;4934473;29;20035;-84
2023/08/03 09:25:18;;;;;;;31.48;7.88;;;;;;;;;;4934122;29;20059;-83
2023/08/03 09:27:49;;;;;;;40.63;8.55;;;;;;;;;;4934527;29;20416;-84
2023/08/03 09:30:14;;;;;;;42.05;8.02;;;;;;;;;;4934101;29;20527;-83
2023/08/03 09:32:40;;;;;;;50.30;7.95;;;;;;;;;;4934808;29;20044;-83
2023/08/03 09:35:17;;;;;;;39.75;8.50;;;;;;;;;;4933506;29;20040;-82
2023/08/03 09:37:43;;;;;;;44.22;8.23;;;;;;;;;;4934785;29;20417;-84
2023/08/03 09:40:09;;;;;;;49.50;9.43;;;;;;;;;;4933575;29;20059;-85
2023/08/03 09:42:36;;;;;;;49.10;8.45;;;;;;;;;;4934610;29;20048;-85
2023/08/03 09:45:03;;;;;;;37.20;8.60;;;;;;;;;;4933849;29;20134;-85
2023/08/03 09:47:30;;;;;;;39.47;8.10;;;;;;;;;;4933946;29;20040;-84
2023/08/03 09:49:56;;;;;;;48.58;9.02;;;;;;;;;;4933707;29;20480;-84
2023/08/03 09:52:26;;;;;;;44.58;8.82;;;;;;;;;;4932423;29;20134;-85
2023/08/03 09:54:57;;;;;;;41.45;7.65;;;;;;;;;;4934188;29;20047;-83
2023/08/03 09:57:34;;;;;;;42.25;7.70;;;;;;;;;;4933729;29;20051;-84
2023/08/03 10:00:06;;;;;;;46.40;8.30;;;;;;;;;;4933742;29;20051;-84
2023/08/03 10:02:43;;;;;;;35.70;7.53;;;;;;;;;;4933506;29;20047;-84
2023/08/03 10:05:09;;;;;;;45.40;8.95;;;;;;;;;;4933937;29;20050;-83
2023/08/03 10:07:43;;;;;;;39.15;8.55;;;;;;;;;;4934286;29;20389;-83
2023/08/03 10:10:15;;;;;;;44.25;7.57;;;;;;;;;;4933524;29;20664;-83
2023/08/03 10:12:50;;;;;;;45.60;8.18;;;;;;;;;;4934045;29;20050;-84
2023/08/03 10:15:16;;;;;;;38.05;7.80;;;;;;;;;;4933579;29;20127;-85
2023/08/03 10:17:43;;;;;;;49.25;7.47;;;;;;;;;;4933552;29;20050;-83
2023/08/03 10:20:09;;;;;;;32.13;7.32;;;;;;;;;;4933195;29;20064;-83
2023/08/03 10:22:35;;;;;;;44.63;9.05;;;;;;;;;;4934134;29;20078;-83
2023/08/03 10:25:19;;;;;;;42.10;7.18;;;;;;;;;;4933579;29;20103;-84
2023/08/03 10:28:13;;;;;;;34.10;7.57;;;;;;;;;;4933125;29;20039;-84
2023/08/03 10:31:00;;;;;;;28.35;6.90;;;;;;;;;;4933335;29;20142;-84
2023/08/03 10:33:49;;;;;;;38.53;7.47;;;;;;;;;;4933379;29;20531;-83
2023/08/03 10:36:29;;;;;;;28.13;6.57;;;;;;;;;;4932641;29;20048;-82
2023/08/03 10:38:54;;;;;;;47.55;8.32;;;;;;;;;;4933624;29;20055;-83
2023/08/03 10:41:21;;;;;;;44.38;7.18;;;;;;;;;;4932797;29;20484;-82
2023/08/03 10:44:20;;;;;;;36.70;7.65;;;;;;;;;;4933883;29;20040;-84
2023/08/03 10:46:49;;;;;;;33.75;7.05;;;;;;;;;;4914403;29;20052;-82
2023/08/03 10:49:17;;;;;;;28.05;5.75;;;;;;;;;;4932627;29;20127;-82
2023/08/03 10:51:43;;;;;;;27.67;5.93;;;;;;;;;;4933448;29;20505;-83
2023/08/03 10:54:09;;;;;;;33.42;6.03;;;;;;;;;;4933129;29;20047;-82
2023/08/03 10:56:34;;;;;;;25.98;5.95;;;;;;;;;;4933418;29;20054;-84
2023/08/03 10:59:02;;;;;;;26.90;6.32;;;;;;;;;;4933191;29;20050;-84
2023/08/03 11:01:28;;;;;;;34.22;6.68;;;;;;;;;;4932505;29;20119;-82
2023/08/03 11:03:54;;;;;;;30.05;6.55;;;;;;;;;;4936274;29;20134;-83
2023/08/03 11:06:20;;;;;;;29.52;5.35;;;;;;;;;;4936274;29;20543;-83
2023/08/03 11:08:46;;;;;;;29.23;6.13;;;;;;;;;;4937466;29;20044;-83
2023/08/03 11:11:12;;;;;;;32.13;6.13;;;;;;;;;;4936315;29;20054;-83
2023/08/03 11:13:38;;;;;;;31.83;5.95;;;;;;;;;;4937047;29;20139;-84
2023/08/03 11:16:05;;;;;;;25.33;5.85;;;;;;;;;;4936485;29;20044;-83
2023/08/03 11:18:33;;;;;;;29.50;5.45;;;;;;;;;;4936611;29;20044;-83
2023/08/03 11:20:58;;;;;;;27.60;5.50;;;;;;;;;;4936952;29;20377;-84
2023/08/03 11:23:24;;;;;;;21.05;5.05;;;;;;;;;;4936640;29;20126;-85
2023/08/03 11:25:49;;;;;;;22.20;4.60;;;;;;;;;;4918941;29;20351;-86
2023/08/03 11:28:18;;;;;;;26.17;4.93;;;;;;;;;;4935587;29;20058;-86
2023/08/03 11:30:44;;;;;;;26.60;5.00;;;;;;;;;;4935475;29;20052;-85
2023/08/03 11:33:13;;;;;;;24.08;5.50;;;;;;;;;;4930440;29;20056;-87
2023/08/03 11:35:39;;;;;;;22.52;4.68;;;;;;;;;;4928193;29;20048;-87
2023/08/03 11:38:08;;;;;;;22.13;4.60;;;;;;;;;;4927567;29;20523;-87
2023/08/03 11:40:34;;;;;;;22.13;5.18;;;;;;;;;;4929128;29;20157;-84
2023/08/03 11:43:04;;;;;;;25.15;4.20;;;;;;;;;;4929297;29;20054;-87
2023/08/03 11:45:29;;;;;;;19.40;5.25;;;;;;;;;;4928876;29;20155;-87
2023/08/03 11:47:58;;;;;;;22.92;4.43;;;;;;;;;;4928766;29;20591;-86
2023/08/03 11:50:24;;;;;;;24.85;5.20;;;;;;;;;;4928134;29;20090;-86
2023/08/03 11:52:57;;;;;;;19.92;4.97;;;;;;;;;;4924180;29;20412;-84
2023/08/03 11:55:32;;;;;;;23.45;4.28;;;;;;;;;;4925906;29;20044;-87
2023/08/03 11:58:10;;;;;;;19.05;4.82;;;;;;;;;;4925869;29;20079;-87
2023/08/03 12:00:39;;;;;;;19.27;4.53;;;;;;;;;;4929551;29;20055;-88
2023/08/03 12:03:06;;;;;;;15.77;4.28;;;;;;;;;;4917522;29;20048;-89
2023/08/03 12:05:46;;;;;;;21.45;4.63;;;;;;;;;;4917712;29;20050;-88
2023/08/03 12:08:12;;;;;;;23.08;5.07;;;;;;;;;;4917210;29;20394;-87
2023/08/03 12:10:37;;;;;;;24.20;5.25;;;;;;;;;;4917495;29;20068;-88
2023/08/03 12:13:03;;;;;;;24.90;5.05;;;;;;;;;;4917148;29;20123;-88
2023/08/03 12:15:29;;;;;;;24.02;5.20;;;;;;;;;;4916543;29;20056;-88
2023/08/03 12:17:55;;;;;;;21.38;5.43;;;;;;;;;;4917423;29;20108;-88
2023/08/03 12:20:20;;;;;;;22.45;4.78;;;;;;;;;;4900109;29;20123;-87
2023/08/03 12:22:45;;;;;;;22.40;4.20;;;;;;;;;;4914123;29;20135;-86
2023/08/03 12:25:11;;;;;;;23.38;4.53;;;;;;;;;;4934771;29;20052;-83
2023/08/03 12:27:36;;;;;;;20.50;4.38;;;;;;;;;;4935004;29;20043;-84
2023/08/03 12:30:01;;;;;;;15.77;3.53;;;;;;;;;;4935089;29;20603;-87
2023/08/03 12:32:27;;;;;;;26.83;5.30;;;;;;;;;;4934589;29;20473;-84
2023/08/03 12:34:53;;;;;;;14.88;3.85;;;;;;;;;;4934871;29;20040;-87
2023/08/03 12:37:19;;;;;;;17.85;4.15;;;;;;;;;;4931602;29;20098;-83
2023/08/03 12:39:44;;;;;;;22.48;4.50;;;;;;;;;;4934953;29;20063;-87
2023/08/03 12:42:09;;;;;;;20.73;4.20;;;;;;;;;;4934526;29;20043;-86
2023/08/03 12:44:35;;;;;;;19.90;4.40;;;;;;;;;;4934650;29;20143;-86
2023/08/03 12:47:00;;;;;;;17.63;4.32;;;;;;;;;;4934870;29;20047;-85
2023/08/03 12:49:26;;;;;;;21.60;4.35;;;;;;;;;;4933108;29;20048;-85
2023/08/03 12:51:51;;;;;;;19.15;5.07;;;;;;;;;;4934399;29;20035;-85
2023/08/03 12:54:16;;;;;;;20.38;4.35;;;;;;;;;;4916509;29;20039;-86
2023/08/03 12:56:42;;;;;;;22.42;4.53;;;;;;;;;;4917249;29;20079;-85
2023/08/03 12:59:08;;;;;;;18.95;4.07;;;;;;;;;;4933801;29;20142;-85
2023/08/03 13:01:33;;;;;;;18.20;4.28;;;;;;;;;;4934250;29;20055;-86
2023/08/03 13:03:59;;;;;;;19.75;3.67;;;;;;;;;;4933770;29;20051;-84
2023/08/03 13:06:24;;;;;;;15.30;3.72;;;;;;;;;;4933998;29;20047;-84
2023/08/03 13:08:50;;;;;;;16.42;3.78;;;;;;;;;;4934584;29;20095;-85
2023/08/03 13:11:15;;;;;;;18.23;3.72;;;;;;;;;;4916550;29;20048;-85
2023/08/03 13:13:41;;;;;;;21.88;3.97;;;;;;;;;;4934347;29;20074;-87
2023/08/03 13:16:06;;;;;;;26.10;3.92;;;;;;;;;;4933765;29;20111;-87
2023/08/03 13:18:32;;;;;;;16.38;3.90;;;;;;;;;;4917795;29;20054;-84
2023/08/03 13:21:01;;;;;;;16.08;3.85;;;;;;;;;;4919666;29;20103;-85
2023/08/03 13:23:26;;;;;;;16.38;4.20;;;;;;;;;;4919055;29;20044;-88
2023/08/03 13:25:52;;;;;;;14.13;3.47;;;;;;;;;;4915994;29;20555;-87
2023/08/03 13:28:17;;;;;;;19.05;3.58;;;;;;;;;;4916284;29;20130;-87
2023/08/03 13:30:42;;;;;;;19.50;3.72;;;;;;;;;;4917079;29;20036;-86
2023/08/03 13:33:08;;;;;;;15.98;3.42;;;;;;;;;;4933842;29;20067;-87
2023/08/03 13:35:33;;;;;;;15.30;3.60;;;;;;;;;;4934838;29;20416;-86
2023/08/03 13:37:58;;;;;;;21.88;4.50;;;;;;;;;;4916993;29;20044;-86
2023/08/03 13:40:24;;;;;;;21.13;3.97;;;;;;;;;;4932813;29;20135;-86
2023/08/03 13:42:49;;;;;;;25.60;4.35;;;;;;;;;;4934188;29;20131;-88
2023/08/03 13:45:15;;;;;;;18.90;3.90;;;;;;;;;;4916643;29;20512;-89
2023/08/03 13:47:40;;;;;;;17.35;3.60;;;;;;;;;;4929329;29;20046;-89
2023/08/03 13:50:06;;;;;;;18.15;3.67;;;;;;;;;;4932434;29;20127;-86
2023/08/03 13:52:31;;;;;;;19.98;3.65;;;;;;;;;;4933541;29;20059;-85
2023/08/03 13:54:57;;;;;;;22.38;3.90;;;;;;;;;;4933317;29;20048;-86
2023/08/03 13:57:22;;;;;;;21.50;4.40;;;;;;;;;;4932754;29;20504;-85
2023/08/03 13:59:47;;;;;;;17.95;3.30;;;;;;;;;;4933292;29;20558;-84
2023/08/03 14:02:13;;;;;;;20.70;3.75;;;;;;;;;;4931637;29;20047;-86
2023/08/03 14:04:39;;;;;;;17.10;4.10;;;;;;;;;;4933508;29;20542;-86
2023/08/03 14:07:05;;;;;;;15.88;3.85;;;;;;;;;;4929525;29;20123;-85
2023/08/03 14:09:31;;;;;;;17.60;3.65;;;;;;;;;;4932929;29;20500;-85
2023/08/03 14:11:56;;;;;;;15.38;3.60;;;;;;;;;;4933267;29;20427;-87
2023/08/03 14:14:22;;;;;;;15.07;3.67;;;;;;;;;;4915914;29;20169;-86
2023/08/03 14:16:48;;;;;;;15.85;3.42;;;;;;;;;;4933226;29;20135;-86
2023/08/03 14:19:18;;;;;;;18.45;3.63;;;;;;;;;;4932289;29;20044;-86
2023/08/03 14:21:44;;;;;;;16.20;3.83;;;;;;;;;;4932722;29;20136;-87
2023/08/03 14:24:10;;;;;;;18.80;3.63;;;;;;;;;;4915665;29;20035;-86
2023/08/03 14:26:35;;;;;;;15.27;3.58;;;;;;;;;;4933311;29;20095;-86
2023/08/03 14:29:01;;;;;;;10.30;2.90;;;;;;;;;;4916098;29;20123;-85
2023/08/03 14:31:26;;;;;;;19.75;3.83;;;;;;;;;;4932512;29;20051;-85
2023/08/03 14:33:52;;;;;;;16.20;3.53;;;;;;;;;;4932043;29;20464;-85
2023/08/03 14:36:17;;;;;;;21.52;3.97;;;;;;;;;;4931910;29;20150;-84
2023/08/03 14:38:42;;;;;;;19.63;3.80;;;;;;;;;;4935653;29;20518;-87
2023/08/03 14:41:17;;;;;;;14.88;3.92;;;;;;;;;;4936567;29;20561;-89
2023/08/03 14:43:43;;;;;;;19.17;4.55;;;;;;;;;;4935183;29;20531;-88
2023/08/03 14:46:08;;;;;;;17.17;3.70;;;;;;;;;;4936481;29;20075;-86
2023/08/03 14:48:33;;;;;;;16.45;3.50;;;;;;;;;;4920046;29;20047;-88
2023/08/03 14:50:59;;;;;;;17.50;3.70;;;;;;;;;;4920127;29;20047;-87
2023/08/03 14:53:24;;;;;;;14.10;3.88;;;;;;;;;;4936441;29;20070;-86
2023/08/03 14:55:57;;;;;;;16.08;3.42;;;;;;;;;;4919217;29;20039;-85
2023/08/03 14:58:23;;;;;;;16.52;4.28;;;;;;;;;;4916734;29;20047;-87
2023/08/03 15:00:48;;;;;;;15.63;4.80;;;;;;;;;;4919147;29;20039;-85
2023/08/03 15:03:13;;;;;;;16.17;4.20;;;;;;;;;;4936239;29;20127;-86
2023/08/03 15:05:39;;;;;;;17.80;4.22;;;;;;;;;;4936420;29;20184;-88
2023/08/03 15:08:04;;;;;;;11.82;3.95;;;;;;;;;;4935820;29;20098;-90
2023/08/03 15:10:30;;;;;;;10.05;3.97;;;;;;;;;;4919568;29;20514;-90
2023/08/03 15:12:55;;;;;;;14.70;4.72;;;;;;;;;;4935913;29;20406;-92
2023/08/03 15:15:20;;;;;;;15.20;3.42;;;;;;;;;;4937286;29;20620;-89
2023/08/03 15:17:46;;;;;;;12.35;3.97;;;;;;;;;;4935495;29;20042;-89
2023/08/03 15:20:11;;;;;;;13.52;4.85;;;;;;;;;;4915899;29;20571;-91
2023/08/03 15:22:37;;;;;;;12.75;4.13;;;;;;;;;;4937719;29;20047;-90
2023/08/03 15:25:02;;;;;;;10.32;3.80;;;;;;;;;;4920454;29;20044;-89
2023/08/03 15:27:29;;;;;;;15.18;4.63;;;;;;;;;;4918679;29;20080;-90
2023/08/03 15:29:55;;;;;;;16.67;4.93;;;;;;;;;;4929428;29;20047;-89
2023/08/03 15:32:20;;;;;;;17.88;5.15;;;;;;;;;;4918295;29;20114;-91
2023/08/03 15:34:46;;;;;;;28.20;5.20;;;;;;;;;;4929825;29;20513;-88
2023/08/03 15:37:11;;;;;;;17.67;5.68;;;;;;;;;;4917188;29;20119;-90
2023/08/03 15:39:37;;;;;;;20.20;5.13;;;;;;;;;;4912385;29;20122;-89
2023/08/03 15:42:02;;;;;;;19.92;5.15;;;;;;;;;;4912413;29;20099;-89
2023/08/03 15:44:28;;;;;;;20.38;5.35;;;;;;;;;;4922683;29;20044;-90
2023/08/03 15:46:54;;;;;;;18.58;4.80;;;;;;;;;;4930478;29;20098;-89
2023/08/03 15:49:21;;;;;;;21.33;6.03;;;;;;;;;;4929472;29;20051;-87
2023/08/03 15:51:46;;;;;;;26.23;6.28;;;;;;;;;;4929154;29;20092;-86
2023/08/03 15:54:11;;;;;;;19.98;5.10;;;;;;;;;;4940311;29;20076;-86
2023/08/03 15:56:38;;;;;;;20.38;5.55;;;;;;;;;;4918237;29;20063;-86
2023/08/03 15:59:03;;;;;;;22.50;5.88;;;;;;;;;;4926740;29;20540;-84
2023/08/03 16:01:28;;;;;;;20.02;5.13;;;;;;;;;;4927609;29;20075;-88
2023/08/03 16:03:54;;;;;;;19.08;4.53;;;;;;;;;;4911053;29;20539;-88
2023/08/03 16:06:21;;;;;;;22.98;5.30;;;;;;;;;;4925326;29;20043;-88
2023/08/03 16:08:46;;;;;;;15.45;4.85;;;;;;;;;;4924179;29;20067;-89
2023/08/03 16:11:12;;;;;;;20.67;4.82;;;;;;;;;;4928797;29;20583;-87
2023/08/03 16:13:38;;;;;;;26.45;4.65;;;;;;;;;;4929597;29;20048;-88
2023/08/03 16:16:05;;;;;;;16.85;5.00;;;;;;;;;;4932528;29;20078;-86
2023/08/03 16:18:32;;;;;;;17.52;5.63;;;;;;;;;;4921902;29;20047;-87
2023/08/03 16:21:02;;;;;;;23.52;5.15;;;;;;;;;;4929034;29;20079;-87
2023/08/03 16:23:28;;;;;;;20.95;5.80;;;;;;;;;;4929646;29;20096;-86
2023/08/03 16:25:53;;;;;;;20.60;5.63;;;;;;;;;;4936270;29;20047;-86
2023/08/03 16:28:19;;;;;;;26.02;5.30;;;;;;;;;;4924673;29;20048;-87
2023/08/03 16:30:44;;;;;;;25.55;6.28;;;;;;;;;;4921516;29;20043;-86
2023/08/03 16:33:10;;;;;;;20.95;5.32;;;;;;;;;;4932175;29;20036;-87
2023/08/03 16:35:39;;;;;;;26.75;5.35;;;;;;;;;;4933800;29;20095;-86
2023/08/03 16:38:04;;;;;;;;;;;;;;;;;;4935655;29;20048;-84
2023/08/03 16:40:30;;;;;;;17.67;5.68;;;;;;;;;;4926085;29;19933;-86
2023/08/03 16:42:56;;;;;;;19.77;6.53;;;;;;;;;;4916927;29;20044;-85
2023/08/03 16:45:22;;;;;;;32.15;6.07;;;;;;;;;;4932869;29;20477;-83
2023/08/03 16:47:47;;;;;;;21.85;5.05;;;;;;;;;;4935269;29;20060;-85
2023/08/03 16:50:13;;;;;;;24.42;5.63;;;;;;;;;;4933914;29;20050;-85
2023/08/03 16:52:38;;;;;;;19.23;5.50;;;;;;;;;;4923500;29;20498;-85
2023/08/03 16:55:04;;;;;;;20.88;5.40;;;;;;;;;;4916322;29;20040;-86
2023/08/03 16:57:30;;;;;;;26.75;6.60;;;;;;;;;;4923310;29;20040;-86
2023/08/03 16:59:55;;;;;;;24.38;6.20;;;;;;;;;;4926669;29;20139;-84
2023/08/03 17:02:21;;;;;;;22.02;6.10;;;;;;;;;;4923629;29;20147;-86
2023/08/03 17:04:47;;;;;;;17.27;5.85;;;;;;;;;;4926599;29;20058;-88
2023/08/03 17:07:13;;;;;;;22.00;5.60;;;;;;;;;;4927501;29;20051;-87
2023/08/03 17:09:41;;;;;;;21.25;5.63;;;;;;;;;;4914147;29;20067;-86
2023/08/03 17:12:07;;;;;;;21.90;6.40;;;;;;;;;;4928366;29;20051;-84
2023/08/03 17:14:34;;;;;;;19.13;5.30;;;;;;;;;;4920841;29;20044;-86
2023/08/03 17:17:00;;;;;;;22.20;6.13;;;;;;;;;;4909265;29;20115;-84
2023/08/03 17:19:25;;;;;;;22.55;5.30;;;;;;;;;;4908592;29;20679;-85
2023/08/03 17:21:50;;;;;;;21.38;5.68;;;;;;;;;;4912614;29;20044;-86
2023/08/03 17:24:16;;;;;;;22.10;4.95;;;;;;;;;;4927740;29;20576;-86
2023/08/03 17:26:42;;;;;;;22.55;4.93;;;;;;;;;;4928726;29;20538;-84
2023/08/03 17:29:09;;;;;;;24.08;5.13;;;;;;;;;;4928025;29;20039;-84
2023/08/03 17:31:37;;;;;;;16.45;4.68;;;;;;;;;;4918719;29;20685;-86
2023/08/03 17:34:03;;;;;;;17.27;4.50;;;;;;;;;;4927349;29;20070;-86
2023/08/03 17:36:28;;;;;;;18.63;4.47;;;;;;;;;;4927406;29;20067;-86
2023/08/03 17:38:54;;;;;;;16.48;4.30;;;;;;;;;;4928096;29;20047;-86
2023/08/03 17:41:19;;;;;;;21.70;4.78;;;;;;;;;;4927829;29;20044;-86
2023/08/03 17:43:45;;;;;;;20.48;4.20;;;;;;;;;;4910416;29;20048;-84
2023/08/03 17:46:10;;;;;;;17.80;4.57;;;;;;;;;;4927009;29;20412;-87
2023/08/03 17:48:37;;;;;;;15.60;4.43;;;;;;;;;;4921614;29;20135;-86
2023/08/03 17:51:08;;;;;;;16.40;4.65;;;;;;;;;;4921716;29;20107;-86
2023/08/03 17:53:38;;;;;;;16.52;4.18;;;;;;;;;;4924430;29;20059;-85
2023/08/03 17:56:11;;;;;;;16.00;3.78;;;;;;;;;;4922056;29;20543;-86
2023/08/03 17:58:40;;;;;;;17.73;3.65;;;;;;;;;;4921748;29;20536;-87
2023/08/03 18:01:25;;;;;;;29.60;9.02;;;;;;;;;;4917489;29;20047;-89
2023/08/03 18:03:52;;;;;;;16.25;7.90;;;;;;;;;;4916221;29;20233;-87
2023/08/03 18:06:24;;;;;;;16.65;7.68;;;;;;;;;;4915229;29;20051;-86
2023/08/03 18:08:53;;;;;;;15.55;6.18;;;;;;;;;;4917979;29;20527;-88
2023/08/03 18:11:19;;;;;;;21.17;5.28;;;;;;;;;;4919544;29;20056;-89
2023/08/03 18:13:44;;;;;;;20.90;4.95;;;;;;;;;;4927080;29;20878;-89
2023/08/03 18:16:12;;;;;;;24.80;5.35;;;;;;;;;;4925798;29;20444;-86
2023/08/03 18:18:39;;;;;;;24.48;8.98;;;;;;;;;;4910161;29;20053;-88
2023/08/03 18:21:06;;;;;;;21.63;6.18;;;;;;;;;;4926042;29;20576;-84
2023/08/03 18:23:32;;;;;;;18.77;5.88;;;;;;;;;;4918897;29;20054;-88
2023/08/03 18:26:01;;;;;;;23.98;11.18;;;;;;;;;;4921692;29;20044;-90
2023/08/03 18:28:28;;;;;;;17.88;6.32;;;;;;;;;;4921716;29;20051;-89
2023/08/03 18:31:07;;;;;;;22.55;6.88;;;;;;;;;;4920990;29;20143;-90
2023/08/03 18:33:34;;;;;;;18.60;5.63;;;;;;;;;;4917155;29;20052;-87
2023/08/03 18:36:05;;;;;;;14.77;6.20;;;;;;;;;;4917749;29;20089;-89
2023/08/03 18:38:33;;;;;;;13.98;3.92;;;;;;;;;;4911889;29;20040;-91
2023/08/03 18:41:00;;;;;;;17.90;4.60;;;;;;;;;;4909285;29;20052;-90
2023/08/03 18:43:25;;;;;;;14.52;4.38;;;;;;;;;;4916577;29;20036;-90
2023/08/03 18:46:02;;;;;;;19.70;3.95;;;;;;;;;;4920508;29;20163;-90
2023/08/03 18:48:28;;;;;;;14.35;4.63;;;;;;;;;;4918269;29;20495;-88
2023/08/03 18:51:01;;;;;;;14.85;4.30;;;;;;;;;;4922352;29;20040;-89
2023/08/03 18:53:27;;;;;;;16.20;4.93;;;;;;;;;;4924668;29;20067;-89
2023/08/03 18:55:54;;;;;;;20.13;9.75;;;;;;;;;;4939800;29;20059;-89
2023/08/03 18:58:20;;;;;;;20.60;6.50;;;;;;;;;;4940995;29;20121;-88
2023/08/03 19:00:45;;;;;;;17.83;8.98;;;;;;;;;;4938738;29;20115;-88
2023/08/03 19:03:11;;;;;;;19.40;4.97;;;;;;;;;;4936233;29;20094;-88
2023/08/03 19:05:39;;;;;;;24.48;4.95;;;;;;;;;;4928581;29;20119;-87
2023/08/03 19:08:04;;;;;;;20.05;5.18;;;;;;;;;;4928050;29;20757;-89
2023/08/03 19:10:30;;;;;;;15.70;4.13;;;;;;;;;;4928450;29;20043;-89
2023/08/03 19:12:55;;;;;;;15.82;4.30;;;;;;;;;;4928284;29;20059;-89
2023/08/03 19:15:21;;;;;;;15.80;5.05;;;;;;;;;;4927607;29;20039;-89
2023/08/03 19:17:46;;;;;;;20.67;5.10;;;;;;;;;;4899577;29;20127;-90
2023/08/03 19:20:12;;;;;;;18.15;4.82;;;;;;;;;;4930029;29;20043;-91
2023/08/03 19:22:38;;;;;;;15.90;3.90;;;;;;;;;;4924908;29;20130;-92
2023/08/03 19:25:04;;;;;;;20.17;4.47;;;;;;;;;;4920815;29;20134;-90
2023/08/03 19:27:31;;;;;;;15.02;3.92;;;;;;;;;;4933275;29;20522;-92
2023/08/03 19:29:57;;;;;;;15.82;3.80;;;;;;;;;;4926689;29;20094;-90
2023/08/03 19:32:22;;;;;;;19.83;4.22;;;;;;;;;;4913858;29;20043;-92
2023/08/03 19:34:47;;;;;;;20.48;4.53;;;;;;;;;;4919393;29;20048;-90
2023/08/03 19:37:13;;;;;;;17.27;4.03;;;;;;;;;;4932586;29;20040;-91
2023/08/03 19:39:38;;;;;;;18.15;4.30;;;;;;;;;;4932350;29;20055;-90
2023/08/03 19:42:04;;;;;;;14.30;3.83;;;;;;;;;;4903987;29;20047;-87
2023/08/03 19:44:29;;;;;;;19.15;4.25;;;;;;;;;;4914628;29;20489;-93
2023/08/03 19:46:54;;;;;;;16.52;4.38;;;;;;;;;;4915018;29;20052;-92
2023/08/03 19:49:20;;;;;;;15.93;3.95;;;;;;;;;;4915539;29;20056;-92
2023/08/03 19:51:45;;;;;;;17.00;3.90;;;;;;;;;;4928959;29;20796;-93
2023/08/03 19:54:11;;;;;;;18.23;4.47;;;;;;;;;;4932107;29;20044;-92
2023/08/03 19:56:36;;;;;;;22.27;4.63;;;;;;;;;;4923806;29;20051;-94
2023/08/03 19:59:05;;;;;;;13.95;3.92;;;;;;;;;;4916776;29;20092;-91
2023/08/03 20:01:30;;;;;;;12.85;3.85;;;;;;;;;;4927827;29;20094;-93
2023/08/03 20:04:02;;;;;;;17.80;4.28;;;;;;;;;;4926142;29;20043;-95
2023/08/03 20:06:27;;;;;;;16.63;4.10;;;;;;;;;;4934603;29;20046;-93
2023/08/03 20:08:54;;;;;;;20.27;4.57;;;;;;;;;;4929633;29;20044;-95
2023/08/03 20:11:19;;;;;;;17.20;5.40;;;;;;;;;;4941813;29;20048;-94
2023/08/03 20:13:45;;;;;;;20.55;5.88;;;;;;;;;;4935012;29;20055;-94
2023/08/03 20:16:10;;;;;;;15.55;4.70;;;;;;;;;;4932408;29;20396;-94
2023/08/03 20:18:36;;;;;;;19.85;7.28;;;;;;;;;;4932215;29;20050;-94
2023/08/03 20:21:02;;;;;;;18.20;5.78;;;;;;;;;;4932360;29;20560;-94
2023/08/03 20:23:29;;;;;;;14.27;4.55;;;;;;;;;;4915365;29;20048;-92
2023/08/03 20:25:54;;;;;;;15.70;4.30;;;;;;;;;;4932184;29;20050;-94
2023/08/03 20:28:21;;;;;;;12.65;4.30;;;;;;;;;;4932293;29;20143;-94